createdAt,value
2022-11-28T00:01:24.791Z,6.25
2022-11-28T00:03:51.698Z,6.60
2022-11-28T00:06:18.713Z,6.68
2022-11-28T00:08:45.194Z,5.57
2022-11-28T00:11:14.582Z,5.85
2022-11-28T00:13:41.210Z,5.53
2022-11-28T00:16:09.326Z,5.18
2022-11-28T00:18:36.084Z,4.93
2022-11-28T00:21:09.268Z,6.15
2022-11-28T00:23:36.154Z,6.80
2022-11-28T00:26:06.775Z,4.10
2022-11-28T00:28:33.228Z,4.30
2022-11-28T00:30:59.706Z,5.22
2022-11-28T00:33:26.147Z,4.97
2022-11-28T00:36:01.895Z,4.43
2022-11-28T00:38:28.855Z,4.97
2022-11-28T00:41:04.257Z,4.25
2022-11-28T00:43:31.178Z,3.88
2022-11-28T00:45:57.638Z,4.05
2022-11-28T00:48:24.763Z,5.03
2022-11-28T00:50:51.554Z,4.53
2022-11-28T00:53:18.001Z,5.53
2022-11-28T00:55:44.533Z,7.35
2022-11-28T00:58:10.991Z,5.90
2022-11-28T01:00:38.150Z,6.57
2022-11-28T01:03:06.282Z,5.28
2022-11-28T01:05:32.705Z,5.40
2022-11-28T01:07:59.191Z,4.65
2022-11-28T01:10:27.008Z,5.10
2022-11-28T01:12:53.549Z,5.13
2022-11-28T01:15:20.000Z,4.40
2022-11-28T01:17:46.450Z,4.93
2022-11-28T01:20:13.500Z,6.30
2022-11-28T01:22:39.946Z,5.45
2022-11-28T01:25:06.834Z,5.25
2022-11-28T01:27:33.264Z,5.50
2022-11-28T01:29:59.684Z,7.38
2022-11-28T01:32:26.110Z,8.93
2022-11-28T01:34:52.563Z,6.93
2022-11-28T01:37:19.092Z,6.53
2022-11-28T01:39:45.647Z,6.85
2022-11-28T01:42:19.775Z,4.80
2022-11-28T01:44:48.938Z,5.10
2022-11-28T01:47:20.633Z,9.00
2022-11-28T01:49:48.978Z,7.57
2022-11-28T01:52:17.215Z,6.18
2022-11-28T01:54:48.180Z,4.85
2022-11-28T01:57:20.927Z,4.35
2022-11-28T01:59:53.866Z,7.13
2022-11-28T02:02:33.259Z,5.13
2022-11-28T02:05:00.582Z,4.32
2022-11-28T02:07:27.383Z,4.93
2022-11-28T02:09:53.973Z,5.00
2022-11-28T02:12:38.131Z,4.93
2022-11-28T02:15:26.404Z,5.93
2022-11-28T02:18:08.156Z,11.98
2022-11-28T02:20:52.963Z,6.10
2022-11-28T02:23:36.202Z,4.60
2022-11-28T02:26:27.214Z,4.03
2022-11-28T02:29:15.096Z,4.95
2022-11-28T02:32:05.748Z,5.90
2022-11-28T02:34:54.640Z,5.25
2022-11-28T02:37:30.007Z,4.65
2022-11-28T02:40:03.278Z,6.75
2022-11-28T02:42:41.942Z,4.50
2022-11-28T02:45:23.271Z,5.82
2022-11-28T02:48:15.727Z,6.40
2022-11-28T02:51:03.388Z,5.72
2022-11-28T02:53:32.869Z,5.35
2022-11-28T02:55:59.748Z,4.80
2022-11-28T02:58:26.474Z,4.95
2022-11-28T03:00:53.399Z,6.38
2022-11-28T03:07:57.451Z,5.15
2022-11-28T03:10:43.612Z,4.32
2022-11-28T03:13:26.598Z,3.70
2022-11-28T03:16:13.013Z,5.07
2022-11-28T03:18:58.925Z,5.40
2022-11-28T03:21:34.913Z,4.90
2022-11-28T03:24:06.599Z,4.70
2022-11-28T03:27:02.872Z,6.32
2022-11-28T03:29:44.116Z,4.88
2022-11-28T03:32:16.020Z,4.32
2022-11-28T03:34:47.635Z,6.53
2022-11-28T03:37:37.595Z,5.30
2022-11-28T03:40:10.212Z,4.95
2022-11-28T03:42:41.476Z,4.47
2022-11-28T03:45:19.516Z,3.28
2022-11-28T03:47:56.251Z,3.08
2022-11-28T03:50:53.309Z,3.05
2022-11-28T03:53:27.549Z,4.63
2022-11-28T03:56:18.508Z,2.55
2022-11-28T03:58:55.333Z,4.35
2022-11-28T04:01:48.782Z,3.08
2022-11-28T04:04:43.301Z,3.28
2022-11-28T04:07:42.267Z,3.40
2022-11-28T04:10:13.466Z,3.22
2022-11-28T04:12:53.813Z,2.40
2022-11-28T04:15:44.875Z,3.17
2022-11-28T04:18:35.506Z,3.03
2022-11-28T04:21:14.641Z,3.33
2022-11-28T04:23:44.442Z,4.88
2022-11-28T04:26:17.685Z,4.25
2022-11-28T04:28:46.706Z,4.03
2022-11-28T04:31:15.882Z,3.75
2022-11-28T04:33:46.127Z,3.42
2022-11-28T04:36:16.835Z,3.75
2022-11-28T04:38:48.639Z,4.05
2022-11-28T04:41:21.423Z,2.97
2022-11-28T04:43:53.743Z,2.70
2022-11-28T04:46:27.059Z,3.90
2022-11-28T04:48:53.723Z,5.05
2022-11-28T04:51:32.314Z,2.70
2022-11-28T04:54:05.597Z,3.53
2022-11-28T04:56:42.139Z,2.42
2022-11-28T04:59:09.658Z,2.47
2022-11-28T05:01:38.696Z,2.53
2022-11-28T05:04:05.715Z,2.58
2022-11-28T05:06:35.336Z,2.20
2022-11-28T05:09:02.216Z,2.38
2022-11-28T05:11:29.495Z,2.13
2022-11-28T05:13:56.329Z,3.10
2022-11-28T05:16:23.121Z,2.30
2022-11-28T05:18:50.203Z,1.98
2022-11-28T05:21:16.673Z,2.40
2022-11-28T05:23:44.596Z,1.80
2022-11-28T05:26:19.881Z,2.30
2022-11-28T05:28:48.182Z,2.30
2022-11-28T05:31:15.530Z,2.03
2022-11-28T05:33:42.047Z,2.53
2022-11-28T05:36:13.731Z,1.40
2022-11-28T05:38:41.037Z,2.08
2022-11-28T05:41:07.957Z,4.28
2022-11-28T05:43:34.489Z,2.40
2022-11-28T05:46:01.040Z,3.22
2022-11-28T05:48:27.649Z,3.50
2022-11-28T05:50:54.092Z,3.13
2022-11-28T05:53:20.818Z,3.05
2022-11-28T05:55:47.995Z,2.88
2022-11-28T05:58:14.743Z,4.45
2022-11-28T06:00:41.242Z,2.28
2022-11-28T06:03:07.818Z,2.30
2022-11-28T06:05:42.672Z,2.20
2022-11-28T06:08:12.276Z,2.30
2022-11-28T06:10:39.062Z,2.45
2022-11-28T06:13:05.797Z,2.05
2022-11-28T06:15:37.273Z,1.70
2022-11-28T06:18:04.603Z,1.85
2022-11-28T06:20:31.084Z,1.88
2022-11-28T06:22:57.527Z,1.98
2022-11-28T06:25:23.985Z,1.95
2022-11-28T06:27:50.431Z,1.67
2022-11-28T06:30:17.182Z,1.65
2022-11-28T06:32:43.659Z,1.58
2022-11-28T06:35:10.135Z,1.70
2022-11-28T06:37:36.598Z,1.70
2022-11-28T06:40:03.843Z,3.40
2022-11-28T06:42:30.341Z,2.30
2022-11-28T06:44:56.792Z,3.38
2022-11-28T06:47:23.306Z,2.05
2022-11-28T06:49:49.768Z,3.08
2022-11-28T06:52:16.299Z,2.38
2022-11-28T06:54:42.775Z,2.83
2022-11-28T06:57:09.244Z,2.78
2022-11-28T06:59:35.692Z,6.53
2022-11-28T07:02:07.525Z,5.93
2022-11-28T07:04:34.657Z,3.05
2022-11-28T07:07:01.157Z,2.45
2022-11-28T07:09:27.770Z,5.25
2022-11-28T07:11:54.193Z,10.98
2022-11-28T07:14:20.881Z,17.70
2022-11-28T07:16:49.192Z,11.10
2022-11-28T07:19:22.730Z,20.35
2022-11-28T07:21:50.289Z,32.53
2022-11-28T07:24:18.400Z,17.83
2022-11-28T07:26:45.898Z,10.90
2022-11-28T07:29:17.524Z,11.27
2022-11-28T07:31:44.409Z,24.35
2022-11-28T07:34:11.364Z,20.42
2022-11-28T07:36:38.136Z,19.95
2022-11-28T07:39:08.320Z,16.38
2022-11-28T07:41:35.069Z,15.18
2022-11-28T07:44:02.789Z,13.93
2022-11-28T07:46:31.117Z,18.85
2022-11-28T07:48:57.705Z,12.77
2022-11-28T07:51:27.117Z,8.63
2022-11-28T07:53:53.952Z,14.45
2022-11-28T07:56:23.493Z,7.18
2022-11-28T07:58:50.227Z,5.00
2022-11-28T08:01:22.559Z,3.58
2022-11-28T08:03:49.891Z,3.17
2022-11-28T08:06:18.224Z,3.28
2022-11-28T08:08:47.022Z,3.47
2022-11-28T08:11:14.575Z,2.65
2022-11-28T08:13:41.778Z,3.10
2022-11-28T08:16:12.244Z,2.58
2022-11-28T08:18:38.788Z,2.65
2022-11-28T08:21:07.676Z,2.90
2022-11-28T08:23:35.571Z,3.75
2022-11-28T08:26:03.391Z,3.00
2022-11-28T08:28:30.518Z,3.10
2022-11-28T08:30:57.759Z,3.60
2022-11-28T08:33:24.599Z,3.28
2022-11-28T08:35:54.017Z,3.70
2022-11-28T08:38:20.546Z,3.60
2022-11-28T08:40:46.976Z,4.93
2022-11-28T08:43:13.508Z,18.05
2022-11-28T08:45:40.100Z,15.63
2022-11-28T08:48:07.015Z,18.92
2022-11-28T08:50:33.474Z,19.30
2022-11-28T08:53:01.685Z,15.98
2022-11-28T08:55:35.576Z,17.40
2022-11-28T08:58:05.676Z,12.18
2022-11-28T09:00:32.236Z,10.57
2022-11-28T09:02:58.720Z,9.57
2022-11-28T09:05:25.174Z,9.13
2022-11-28T09:07:54.581Z,10.20
2022-11-28T09:10:21.747Z,9.50
2022-11-28T09:12:48.199Z,9.68
2022-11-28T09:15:14.711Z,6.70
2022-11-28T09:17:41.166Z,8.02
2022-11-28T09:20:08.206Z,8.95
2022-11-28T09:22:34.694Z,5.70
2022-11-28T09:25:01.133Z,5.25
2022-11-28T09:27:27.695Z,7.95
2022-11-28T09:29:54.131Z,7.97
2022-11-28T09:32:20.671Z,6.82
2022-11-28T09:34:47.310Z,7.63
2022-11-28T09:37:13.813Z,6.35
2022-11-28T09:39:57.341Z,6.93
2022-11-28T09:42:32.221Z,4.20
2022-11-28T09:45:02.433Z,2.83
2022-11-28T09:47:31.697Z,3.35
2022-11-28T09:50:02.936Z,3.40
2022-11-28T09:52:40.387Z,11.48
2022-11-28T09:55:18.652Z,8.23
2022-11-28T09:57:50.333Z,3.78
2022-11-28T10:00:32.703Z,1.98
2022-11-28T10:03:19.498Z,2.60
2022-11-28T10:06:17.913Z,1.30
2022-11-28T10:09:02.357Z,1.27
2022-11-28T10:11:55.544Z,2.20
2022-11-28T10:14:48.954Z,1.85
2022-11-28T10:17:34.159Z,2.60
2022-11-28T10:20:10.385Z,3.35
2022-11-28T10:22:48.289Z,1.80
2022-11-28T10:25:31.731Z,2.10
2022-11-28T10:27:58.369Z,1.95
2022-11-28T10:30:34.175Z,4.18
2022-11-28T10:33:09.385Z,1.85
2022-11-28T10:35:44.238Z,3.25
2022-11-28T10:38:13.848Z,4.47
2022-11-28T10:40:48.410Z,4.47
2022-11-28T10:43:44.106Z,3.47
2022-11-28T10:46:32.130Z,4.95
2022-11-28T10:49:16.449Z,3.58
2022-11-28T10:52:01.761Z,3.63
2022-11-28T10:54:45.275Z,5.38
2022-11-28T10:57:19.974Z,3.53
2022-11-28T11:00:05.407Z,1.50
2022-11-28T11:02:52.768Z,3.20
2022-11-28T11:05:27.038Z,2.65
2022-11-28T11:08:02.364Z,3.45
2022-11-28T11:10:48.996Z,6.00
2022-11-28T11:13:30.372Z,3.83
2022-11-28T11:16:07.212Z,5.00
2022-11-28T11:18:35.396Z,3.83
2022-11-28T11:21:15.927Z,3.38
2022-11-28T11:23:43.832Z,4.57
2022-11-28T11:26:26.890Z,4.20
2022-11-28T11:28:54.040Z,2.90
2022-11-28T11:31:43.100Z,5.72
2022-11-28T11:34:18.269Z,4.60
2022-11-28T11:36:45.569Z,4.75
2022-11-28T11:39:12.354Z,7.93
2022-11-28T11:41:40.176Z,3.45
2022-11-28T11:44:15.605Z,1.98
2022-11-28T11:46:57.242Z,2.08
2022-11-28T11:49:38.800Z,1.52
2022-11-28T11:52:06.977Z,0.90
2022-11-28T11:54:33.454Z,1.95
2022-11-28T11:57:30.638Z,0.90
2022-11-28T11:59:53.596Z,0.93
2022-11-28T12:02:37.859Z,0.90
2022-11-28T12:05:11.492Z,1.85
2022-11-28T12:08:06.328Z,2.17
2022-11-28T12:10:43.487Z,2.83
2022-11-28T12:13:19.984Z,1.85
2022-11-28T12:15:54.162Z,2.53
2022-11-28T12:18:36.871Z,2.50
2022-11-28T12:21:18.382Z,2.10
2022-11-28T12:24:06.671Z,3.65
2022-11-28T12:26:50.134Z,3.55
2022-11-28T12:29:36.643Z,3.80
2022-11-28T12:32:13.169Z,4.68
2022-11-28T12:35:01.378Z,3.78
2022-11-28T12:38:09.721Z,3.08
2022-11-28T12:41:07.679Z,4.30
2022-11-28T12:44:11.619Z,3.42
2022-11-28T12:46:48.774Z,3.67
2022-11-28T12:49:25.314Z,4.22
2022-11-28T12:52:20.525Z,4.22
2022-11-28T12:54:55.771Z,4.60
2022-11-28T12:57:45.280Z,7.03
2022-11-28T13:00:22.482Z,5.25
2022-11-28T13:03:13.783Z,7.13
2022-11-28T13:05:58.769Z,7.20
2022-11-28T13:08:53.901Z,7.82
2022-11-28T13:11:55.923Z,5.10
2022-11-28T13:15:00.290Z,6.30
2022-11-28T13:17:46.794Z,5.85
2022-11-28T13:20:22.056Z,6.25
2022-11-28T13:22:56.866Z,5.60
2022-11-28T13:26:05.375Z,5.35
2022-11-28T13:28:41.253Z,7.40
2022-11-28T13:31:18.166Z,7.10
2022-11-28T13:33:53.300Z,5.70
2022-11-28T13:39:53.474Z,5.25
2022-11-28T13:43:02.370Z,6.75
2022-11-28T13:45:31.520Z,8.52
2022-11-28T13:48:00.323Z,6.70
2022-11-28T13:50:36.970Z,6.22
2022-11-28T13:53:06.436Z,5.55
2022-11-28T13:56:05.122Z,5.35
2022-11-28T13:58:41.313Z,7.05
2022-11-28T14:01:14.232Z,6.20
2022-11-28T14:03:46.101Z,7.30
2022-11-28T14:06:16.212Z,6.03
2022-11-28T14:08:46.050Z,6.68
2022-11-28T14:11:29.733Z,7.15
2022-11-28T14:14:16.780Z,8.80
2022-11-28T14:17:00.401Z,6.55
2022-11-28T14:19:48.538Z,9.43
2022-11-28T14:22:39.790Z,5.80
2022-11-28T14:25:26.483Z,7.10
2022-11-28T14:28:03.305Z,7.43
2022-11-28T14:30:35.210Z,7.90
2022-11-28T14:33:42.616Z,7.30
2022-11-28T14:36:29.705Z,8.70
2022-11-28T14:39:33.604Z,6.45
2022-11-28T14:42:03.838Z,7.38
2022-11-28T14:45:01.927Z,6.60
2022-11-28T14:47:34.611Z,7.15
2022-11-28T14:50:07.040Z,5.18
2022-11-28T14:52:40.903Z,5.55
2022-11-28T14:55:12.093Z,6.82
2022-11-28T14:57:44.504Z,8.30
2022-11-28T15:00:18.165Z,6.22
2022-11-28T15:02:56.205Z,5.88
2022-11-28T15:05:33.808Z,4.63
2022-11-28T15:08:31.249Z,6.68
2022-11-28T15:14:06.683Z,6.72
2022-11-28T15:16:34.854Z,6.85
2022-11-28T15:19:08.278Z,6.75
2022-11-28T15:21:43.728Z,7.68
2022-11-28T15:24:30.989Z,7.75
2022-11-28T15:27:25.220Z,6.30
2022-11-28T15:29:57.606Z,6.90
2022-11-28T15:32:26.245Z,6.13
2022-11-28T15:35:00.616Z,6.28
2022-11-28T15:37:33.794Z,8.23
2022-11-28T15:40:04.328Z,7.00
2022-11-28T15:42:32.868Z,7.80
2022-11-28T15:45:00.702Z,6.30
2022-11-28T15:47:28.458Z,6.00
2022-11-28T15:50:11.486Z,6.82
2022-11-28T15:52:38.184Z,5.82
2022-11-28T15:55:16.440Z,6.13
2022-11-28T15:57:42.954Z,6.00
2022-11-28T16:00:18.568Z,6.50
2022-11-28T16:02:46.158Z,7.45
2022-11-28T16:05:20.978Z,7.50
2022-11-28T16:07:50.792Z,8.18
2022-11-28T16:10:37.931Z,6.07
2022-11-28T16:13:11.424Z,6.60
2022-11-28T16:15:38.516Z,5.88
2022-11-28T16:18:05.264Z,6.55
2022-11-28T16:20:37.090Z,6.05
2022-11-28T16:23:19.507Z,8.48
2022-11-28T16:25:58.300Z,7.10
2022-11-28T16:28:33.360Z,5.90
2022-11-28T16:31:00.021Z,7.40
2022-11-28T16:33:35.698Z,13.57
2022-11-28T16:36:19.143Z,9.10
2022-11-28T16:38:48.099Z,8.95
2022-11-28T16:41:25.054Z,6.30
2022-11-28T16:43:59.351Z,9.20
2022-11-28T16:46:33.728Z,8.85
2022-11-28T16:49:00.725Z,8.23
2022-11-28T16:51:31.328Z,7.18
2022-11-28T16:54:01.238Z,7.72
2022-11-28T16:56:30.635Z,10.23
2022-11-28T16:59:11.885Z,8.65
2022-11-28T17:01:39.185Z,9.00
2022-11-28T17:04:06.227Z,9.07
2022-11-28T17:06:37.347Z,8.50
2022-11-28T17:09:06.872Z,6.38
2022-11-28T17:11:36.303Z,6.43
2022-11-28T17:14:08.668Z,7.07
2022-11-28T17:16:39.957Z,7.43
2022-11-28T17:19:06.443Z,9.35
2022-11-28T17:21:45.153Z,11.43
2022-11-28T17:24:17.837Z,12.95
2022-11-28T17:26:44.707Z,14.25
2022-11-28T17:29:13.278Z,8.50
2022-11-28T17:31:42.079Z,6.88
2022-11-28T17:34:15.096Z,7.70
2022-11-28T17:36:41.591Z,9.95
2022-11-28T17:39:08.078Z,7.22
2022-11-28T17:41:34.517Z,7.13
2022-11-28T17:44:01.009Z,7.15
2022-11-28T17:46:27.456Z,12.23
2022-11-28T17:48:54.545Z,8.18
2022-11-28T17:51:21.252Z,6.63
2022-11-28T17:53:48.279Z,6.10
2022-11-28T17:56:14.745Z,7.90
2022-11-28T17:58:42.142Z,9.32
2022-11-28T18:01:14.601Z,7.40
2022-11-28T18:03:41.166Z,6.30
2022-11-28T18:06:15.307Z,8.45
2022-11-28T18:08:42.177Z,4.93
2022-11-28T18:11:11.055Z,6.13
2022-11-28T18:13:38.902Z,6.53
2022-11-28T18:16:05.869Z,6.32
2022-11-28T18:18:32.548Z,5.57
2022-11-28T18:21:00.218Z,7.45
2022-11-28T18:23:26.910Z,6.90
2022-11-28T18:25:53.338Z,9.07
2022-11-28T18:28:21.900Z,6.55
2022-11-28T18:30:48.507Z,7.63
2022-11-28T18:33:15.982Z,7.55
2022-11-28T18:35:42.744Z,8.32
2022-11-28T18:38:11.735Z,7.63
2022-11-28T18:40:38.914Z,9.30
2022-11-28T18:43:06.127Z,7.20
2022-11-28T18:45:33.509Z,5.60
2022-11-28T18:48:00.617Z,5.60
2022-11-28T18:50:28.075Z,4.18
2022-11-28T18:52:54.790Z,5.13
2022-11-28T18:55:21.327Z,5.47
2022-11-28T18:57:47.816Z,6.15
2022-11-28T19:00:14.861Z,4.88
2022-11-28T19:02:42.595Z,4.80
2022-11-28T19:05:09.096Z,5.45
2022-11-28T19:07:36.185Z,5.95
2022-11-28T19:10:03.831Z,5.65
2022-11-28T19:12:30.325Z,6.05
2022-11-28T19:15:01.805Z,7.03
2022-11-28T19:17:28.784Z,4.15
2022-11-28T19:19:55.454Z,5.32
2022-11-28T19:22:22.795Z,5.63
2022-11-28T19:24:49.256Z,4.88
2022-11-28T19:27:15.795Z,4.50
2022-11-28T19:29:42.958Z,4.72
2022-11-28T19:32:09.992Z,4.85
2022-11-28T19:34:36.638Z,6.15
2022-11-28T19:37:03.083Z,5.35
2022-11-28T19:39:29.741Z,4.57
2022-11-28T19:41:57.491Z,5.00
2022-11-28T19:44:24.687Z,4.90
2022-11-28T19:46:53.348Z,5.88
2022-11-28T19:49:22.580Z,5.32
2022-11-28T19:51:50.230Z,5.15
2022-11-28T19:54:19.663Z,5.75
2022-11-28T19:56:47.331Z,5.32
2022-11-28T19:59:13.961Z,4.60
2022-11-28T20:01:40.514Z,5.28
2022-11-28T20:04:07.775Z,6.65
2022-11-28T20:06:35.184Z,6.40
2022-11-28T20:09:07.617Z,5.38
2022-11-28T20:11:36.941Z,5.72
2022-11-28T20:14:06.700Z,6.45
2022-11-28T20:16:35.729Z,6.00
2022-11-28T20:19:04.698Z,5.57
2022-11-28T20:21:32.290Z,4.65
2022-11-28T20:24:05.144Z,6.43
2022-11-28T20:26:42.461Z,4.53
2022-11-28T20:29:11.972Z,4.43
2022-11-28T20:31:45.305Z,5.53
2022-11-28T20:34:15.296Z,6.10
2022-11-28T20:36:42.436Z,5.07
2022-11-28T20:39:11.212Z,6.47
2022-11-28T20:41:37.742Z,7.32
2022-11-28T20:44:04.386Z,6.75
2022-11-28T20:46:33.513Z,10.70
2022-11-28T20:49:02.315Z,7.78
2022-11-28T20:51:30.682Z,3.40
2022-11-28T20:53:58.549Z,4.22
2022-11-28T20:56:29.573Z,2.63
2022-11-28T20:58:58.537Z,3.17
2022-11-28T21:01:27.330Z,1.58
2022-11-28T21:03:53.903Z,1.05
2022-11-28T21:06:20.606Z,0.80
2022-11-28T21:08:47.244Z,0.90
2022-11-28T21:11:43.847Z,1.20
2022-11-28T21:14:08.175Z,0.95
2022-11-28T21:16:34.792Z,1.00
2022-11-28T21:19:04.930Z,1.38
2022-11-28T21:21:33.309Z,0.85
2022-11-28T21:24:06.359Z,0.73
2022-11-28T21:26:39.157Z,0.85
2022-11-28T21:29:09.183Z,0.80
2022-11-28T21:31:39.375Z,1.20
2022-11-28T21:34:05.867Z,1.40
2022-11-28T21:36:32.393Z,1.67
2022-11-28T21:39:00.890Z,2.00
2022-11-28T21:41:30.447Z,1.30
2022-11-28T21:43:58.220Z,1.38
2022-11-28T21:46:25.340Z,1.63
2022-11-28T21:48:52.042Z,2.35
2022-11-28T21:51:21.585Z,1.63
2022-11-28T21:53:48.331Z,1.42
2022-11-28T21:56:15.244Z,1.58
2022-11-28T21:58:42.779Z,1.42
2022-11-28T22:01:12.082Z,1.23
2022-11-28T22:03:39.393Z,1.38
2022-11-28T22:06:18.189Z,2.80
2022-11-28T22:08:45.479Z,2.65
2022-11-28T22:11:13.245Z,2.22
2022-11-28T22:13:45.931Z,2.30
2022-11-28T22:16:18.807Z,1.60
2022-11-28T22:18:46.514Z,1.92
2022-11-28T22:21:49.752Z,1.58
2022-11-28T22:24:02.827Z,1.52
2022-11-28T22:26:29.523Z,1.58
2022-11-28T22:28:58.665Z,1.30
2022-11-28T22:31:25.209Z,1.40
2022-11-28T22:33:51.844Z,2.65
2022-11-28T22:36:20.887Z,1.13
2022-11-28T22:38:49.352Z,1.42
2022-11-28T22:41:27.840Z,1.77
2022-11-28T22:43:56.773Z,1.70
2022-11-28T22:46:23.737Z,1.60
2022-11-28T22:48:51.761Z,2.03
2022-11-28T22:51:21.245Z,3.13
2022-11-28T22:53:47.769Z,2.63
2022-11-28T22:56:15.523Z,2.17
2022-11-28T22:58:44.382Z,1.70
2022-11-28T23:01:14.148Z,2.47
2022-11-28T23:03:40.734Z,1.50
2022-11-28T23:06:10.353Z,1.00
2022-11-28T23:08:36.875Z,1.15
2022-11-28T23:11:13.226Z,1.10
2022-11-28T23:13:40.524Z,1.08
2022-11-28T23:16:16.563Z,1.40
2022-11-28T23:18:44.647Z,1.15
2022-11-28T23:21:12.295Z,1.15
2022-11-28T23:23:39.029Z,1.08
2022-11-28T23:26:07.616Z,0.70
2022-11-28T23:28:35.172Z,0.90
2022-11-28T23:31:17.900Z,0.93
2022-11-28T23:33:44.981Z,1.88
2022-11-28T23:36:22.005Z,1.33
2022-11-28T23:38:51.932Z,1.42
2022-11-28T23:41:19.077Z,1.15
2022-11-28T23:43:46.099Z,1.63
2022-11-28T23:46:13.837Z,1.40
2022-11-28T23:48:41.039Z,1.75
2022-11-28T23:51:07.654Z,1.40
2022-11-28T23:53:34.936Z,1.42
2022-11-28T23:56:10.655Z,1.50
2022-11-28T23:58:37.550Z,1.70
